Time;durP1;ratioP1;P1;durP2;ratioP2;P2;SDS_P1;SDS_P2;PMS_P1;PMS_P2;Temp;Humidity;BMP_temperature;BMP_pressure;BME280_temperature;BME280_humidity;BME280_pressure;Samples;Min_cycle;Max_cycle;Signal;HPM_P1;HPM_P2
2022/03/04 00:00:51;;;;;;;20.65;10.98;;;;;;;1.49;81.43;101987.25;5030976;28;20096;-75
2022/03/04 00:03:16;;;;;;;19.17;11.07;;;;;;;1.46;81.49;101990.69;5014531;28;20070;-76
2022/03/04 00:05:42;;;;;;;21.05;11.00;;;;;;;1.47;81.34;101988.09;5011909;28;20087;-75
2022/03/04 00:08:08;;;;;;;19.75;12.02;;;;;;;1.45;81.01;101994.16;5011680;28;20034;-75
2022/03/04 00:10:34;;;;;;;22.23;12.07;;;;;;;1.44;81.40;102001.09;5023093;28;20021;-75
2022/03/04 00:12:59;;;;;;;22.02;11.50;;;;;;;1.40;81.10;101995.84;5030919;28;20040;-76
2022/03/04 00:15:25;;;;;;;22.95;12.45;;;;;;;1.33;81.58;101997.50;5031432;28;20029;-75
2022/03/04 00:17:50;;;;;;;24.92;12.35;;;;;;;1.30;81.58;102003.56;5031456;28;20025;-76
2022/03/04 00:20:16;;;;;;;21.17;11.55;;;;;;;1.27;82.29;101997.41;5031455;28;20045;-75
2022/03/04 00:22:42;;;;;;;23.48;12.95;;;;;;;1.25;82.27;102000.03;5030677;28;20570;-76
2022/03/04 00:25:07;;;;;;;22.73;11.43;;;;;;;1.20;82.45;101998.19;5031146;28;20025;-75
2022/03/04 00:27:33;;;;;;;20.17;11.75;;;;;;;1.17;82.54;101998.16;5031050;28;20064;-75
2022/03/04 00:29:58;;;;;;;20.92;11.70;;;;;;;1.12;82.60;101998.97;5030909;28;20439;-76
2022/03/04 00:32:24;;;;;;;21.98;12.32;;;;;;;1.13;82.71;101995.50;5030488;28;20022;-76
2022/03/04 00:34:50;;;;;;;22.58;12.00;;;;;;;1.10;82.94;102003.28;5031494;28;20078;-76
2022/03/04 00:37:16;;;;;;;20.10;11.38;;;;;;;1.11;83.04;101988.50;5031081;28;20477;-75
2022/03/04 00:39:41;;;;;;;21.15;11.75;;;;;;;1.12;83.38;101998.09;5030934;28;20067;-74
2022/03/04 00:42:07;;;;;;;26.98;12.82;;;;;;;1.11;83.10;102002.44;5030435;28;20431;-76
2022/03/04 00:44:32;;;;;;;22.13;11.57;;;;;;;1.06;83.26;102000.63;5030335;28;20246;-74
2022/03/04 00:46:57;;;;;;;20.02;11.65;;;;;;;1.02;83.33;101997.09;5030820;28;20026;-74
2022/03/04 00:49:23;;;;;;;22.15;11.48;;;;;;;0.98;83.72;102006.63;5030892;28;20029;-76
2022/03/04 00:51:48;;;;;;;21.52;11.15;;;;;;;0.96;83.69;101997.88;5030884;28;20047;-76
2022/03/04 00:54:13;;;;;;;22.13;11.25;;;;;;;0.92;83.84;102003.94;5030114;28;20112;-75
2022/03/04 00:56:39;;;;;;;22.60;11.88;;;;;;;0.90;84.11;102004.75;5030653;28;20471;-74
2022/03/04 00:59:04;;;;;;;23.20;11.82;;;;;;;0.88;83.98;102012.53;5030388;28;20438;-75
2022/03/04 01:01:30;;;;;;;23.23;11.73;;;;;;;0.85;84.19;102016.88;5030639;28;20034;-74
2022/03/04 01:03:55;;;;;;;23.40;11.80;;;;;;;0.82;84.71;102015.09;5030034;28;20414;-75
2022/03/04 01:06:21;;;;;;;22.17;11.65;;;;;;;0.77;84.75;102014.16;5030464;28;20075;-74
2022/03/04 01:08:46;;;;;;;20.40;11.38;;;;;;;0.76;85.02;102012.38;5030234;28;20021;-75
2022/03/04 01:11:11;;;;;;;22.67;12.18;;;;;;;0.75;85.08;102008.03;5030628;28;20465;-75
2022/03/04 01:13:37;;;;;;;22.58;11.85;;;;;;;0.75;85.54;102008.88;5029972;28;20026;-75
2022/03/04 01:16:02;;;;;;;20.40;11.38;;;;;;;0.72;85.46;102000.16;5029898;28;20037;-76
2022/03/04 01:18:28;;;;;;;23.95;12.23;;;;;;;0.70;85.64;102000.13;5030672;28;20026;-75
2022/03/04 01:20:53;;;;;;;23.52;11.93;;;;;;;0.69;85.31;101998.38;5030430;28;20105;-74
2022/03/04 01:23:19;;;;;;;21.00;11.23;;;;;;;0.66;85.78;101998.31;5030388;28;20026;-74
2022/03/04 01:25:45;;;;;;;24.15;11.90;;;;;;;0.64;85.45;101997.44;5029544;28;20021;-76
2022/03/04 01:28:10;;;;;;;23.70;11.88;;;;;;;0.63;85.65;102001.75;5030211;28;20162;-74
2022/03/04 01:30:35;;;;;;;20.63;10.77;;;;;;;0.64;85.57;102007.88;5030324;28;20503;-75
2022/03/04 01:33:01;;;;;;;22.13;12.20;;;;;;;0.60;85.97;102006.94;5030259;28;20052;-75
2022/03/04 01:35:26;;;;;;;25.52;12.27;;;;;;;0.60;85.58;102004.34;5027973;28;20045;-74
2022/03/04 01:37:51;;;;;;;23.55;12.70;;;;;;;0.59;86.04;102007.78;5025798;28;20045;-76
2022/03/04 01:40:17;;;;;;;26.42;12.35;;;;;;;0.60;85.47;101996.53;5030058;28;20120;-74
2022/03/04 01:42:42;;;;;;;23.08;12.00;;;;;;;0.57;85.58;101998.19;5030148;28;20041;-76
2022/03/04 01:45:09;;;;;;;21.55;11.68;;;;;;;0.53;85.32;101997.25;5028039;28;20063;-75
2022/03/04 01:47:38;;;;;;;22.83;11.43;;;;;;;0.48;85.41;102002.41;5029579;28;20029;-73
2022/03/04 01:50:04;;;;;;;22.08;11.48;;;;;;;0.45;85.81;101996.28;5030080;28;20034;-75
2022/03/04 01:52:30;;;;;;;24.70;12.13;;;;;;;0.45;86.14;101996.28;5030118;28;20030;-76
2022/03/04 01:54:55;;;;;;;23.63;11.68;;;;;;;0.45;86.24;101997.16;5027846;28;20033;-75
2022/03/04 01:57:20;;;;;;;23.83;12.50;;;;;;;0.51;86.11;101998.09;5013247;28;20025;-73
2022/03/04 01:59:46;;;;;;;23.63;12.60;;;;;;;0.53;85.92;101985.97;5010389;28;20108;-74
2022/03/04 02:02:12;;;;;;;25.17;12.02;;;;;;;0.56;86.08;101991.22;5009857;28;20101;-74
2022/03/04 02:04:37;;;;;;;26.25;12.60;;;;;;;0.59;85.19;101991.25;5010111;28;20034;-74
2022/03/04 02:07:03;;;;;;;23.35;11.80;;;;;;;0.58;85.12;101987.78;5011081;28;20038;-74
2022/03/04 02:09:28;;;;;;;21.45;11.77;;;;;;;0.54;85.23;101991.22;5026572;28;20033;-74
2022/03/04 02:11:54;;;;;;;23.20;12.05;;;;;;;0.52;85.08;101987.69;5030260;28;20381;-76
2022/03/04 02:14:19;;;;;;;22.98;12.38;;;;;;;0.48;84.72;101991.09;5029716;28;20017;-74
2022/03/04 02:16:49;;;;;;;23.27;12.52;;;;;;;0.42;85.75;101989.28;5020719;28;20034;-76
2022/03/04 02:19:15;;;;;;;23.75;12.05;;;;;;;0.36;85.97;101981.38;5019625;28;20029;-75
2022/03/04 02:21:54;;;;;;;23.55;12.57;;;;;;;0.32;85.93;101990.88;5032456;28;20063;-75
2022/03/04 02:24:22;;;;;;;22.17;12.10;;;;;;;0.28;86.38;101988.19;5033178;28;20026;-74
2022/03/04 02:26:48;;;;;;;24.13;12.82;;;;;;;0.21;87.32;101988.94;5028895;28;20066;-76
2022/03/04 02:29:13;;;;;;;27.83;13.20;;;;;;;0.13;87.80;101997.50;5017141;28;20493;-75
2022/03/04 02:31:39;;;;;;;29.92;12.85;;;;;;;0.13;88.11;101994.03;5025859;28;20033;-75
2022/03/04 02:34:05;;;;;;;24.02;12.65;;;;;;;0.14;88.99;101987.94;5014580;28;20115;-75
2022/03/04 02:36:30;;;;;;;24.45;12.85;;;;;;;0.15;88.65;101981.88;5032835;28;20449;-75
2022/03/04 02:38:55;;;;;;;26.48;13.05;;;;;;;0.22;89.03;101977.66;5030966;28;20072;-75
2022/03/04 02:41:21;;;;;;;27.20;13.07;;;;;;;0.25;88.44;101968.16;5032289;28;20394;-75
2022/03/04 02:43:46;;;;;;;25.85;13.10;;;;;;;0.26;88.14;101974.28;5032670;28;20136;-74
2022/03/04 02:46:13;;;;;;;23.70;12.57;;;;;;;0.25;87.73;101965.56;5031353;28;20124;-75
2022/03/04 02:48:38;;;;;;;25.27;13.05;;;;;;;0.20;88.34;101974.16;5026715;28;20029;-74
2022/03/04 02:51:03;;;;;;;24.65;12.50;;;;;;;0.15;88.69;101966.25;5032042;28;20537;-75
2022/03/04 02:53:29;;;;;;;25.80;12.93;;;;;;;0.13;88.58;101978.41;5032671;28;20025;-75
2022/03/04 02:55:54;;;;;;;32.92;13.63;;;;;;;0.09;88.98;101971.34;5027954;28;20022;-74
2022/03/04 02:58:19;;;;;;;22.55;11.73;;;;;;;0.06;89.62;101973.94;5020309;28;20033;-74
2022/03/04 03:00:45;;;;;;;25.45;13.35;;;;;;;0.00;89.30;101977.31;5018642;28;20546;-74
2022/03/04 03:03:10;;;;;;;24.77;13.23;;;;;;;0.01;89.68;101973.84;5031713;28;20481;-76
2022/03/04 03:05:35;;;;;;;25.13;12.77;;;;;;;0.02;89.85;101974.72;5032047;28;20029;-75
2022/03/04 03:08:01;;;;;;;27.60;12.63;;;;;;;0.06;90.02;101971.31;5037853;27;20034;-75
2022/03/04 03:10:26;;;;;;;25.67;13.13;;;;;;;0.08;89.94;101973.09;5032995;27;20033;-76
2022/03/04 03:12:52;;;;;;;26.08;13.23;;;;;;;0.13;89.84;101970.59;5032012;28;20465;-75
2022/03/04 03:15:17;;;;;;;23.30;12.38;;;;;;;0.19;89.04;101965.44;5032465;28;20071;-74
2022/03/04 03:17:43;;;;;;;28.27;14.07;;;;;;;0.20;88.66;101966.34;5032368;28;20464;-74
2022/03/04 03:20:09;;;;;;;27.00;12.82;;;;;;;0.24;89.22;101962.94;5038934;27;20029;-75
2022/03/04 03:22:34;;;;;;;27.38;13.32;;;;;;;0.26;88.47;101966.44;5031872;28;20490;-74
2022/03/04 03:24:59;;;;;;;25.15;13.32;;;;;;;0.22;88.37;101967.22;5032247;28;20030;-76
2022/03/04 03:27:25;;;;;;;22.38;12.50;;;;;;;0.23;88.36;101964.66;5032090;28;20033;-75
2022/03/04 03:29:50;;;;;;;23.52;12.75;;;;;;;0.19;87.98;101967.19;5032449;27;20353;-76
2022/03/04 03:32:16;;;;;;;24.83;12.98;;;;;;;0.11;88.10;101954.91;5031950;28;20033;-76
2022/03/04 03:34:41;;;;;;;23.77;12.85;;;;;;;0.04;88.64;101970.41;5031318;28;20457;-75
2022/03/04 03:37:09;;;;;;;24.40;12.55;;;;;;;-0.04;89.44;101971.19;5032154;28;20040;-75
2022/03/04 03:39:35;;;;;;;26.50;13.80;;;;;;;-0.07;90.31;101970.25;5038648;27;20396;-73
2022/03/04 03:42:00;;;;;;;28.60;13.48;;;;;;;-0.12;90.28;101972.75;5136156;27;20066;-75
2022/03/04 03:44:25;;;;;;;29.15;14.27;;;;;;;-0.13;90.56;101970.13;5080048;27;20461;-75
2022/03/04 03:46:51;;;;;;;23.85;12.05;;;;;;;-0.14;90.66;101970.97;5031631;28;20029;-74
2022/03/04 03:49:16;;;;;;;30.23;14.00;;;;;;;-0.18;90.39;101972.63;5031441;28;20460;-76
2022/03/04 03:51:41;;;;;;;25.98;13.48;;;;;;;-0.15;90.94;101970.09;5114382;27;20027;-75
2022/03/04 03:54:07;;;;;;;26.75;13.88;;;;;;;-0.13;90.68;101964.91;5121697;27;20036;-75
2022/03/04 03:56:32;;;;;;;29.17;14.02;;;;;;;-0.18;90.89;101970.94;5031574;28;20576;-75
2022/03/04 03:58:57;;;;;;;25.48;13.80;;;;;;;-0.16;90.88;101970.94;5031947;28;20041;-74
2022/03/04 04:01:23;;;;;;;28.02;13.63;;;;;;;-0.10;91.10;101976.28;5079932;27;20102;-73
2022/03/04 04:03:48;;;;;;;30.23;14.48;;;;;;;-0.09;90.70;101969.31;5031422;28;20116;-75
2022/03/04 04:06:14;;;;;;;31.25;14.15;;;;;;;-0.03;90.38;101970.28;5031096;28;20410;-75
2022/03/04 04:08:40;;;;;;;28.25;13.68;;;;;;;-0.02;89.94;101977.25;5031687;28;20056;-75
2022/03/04 04:11:06;;;;;;;25.15;13.50;;;;;;;-0.04;89.64;101975.50;5038405;27;20112;-75
2022/03/04 04:13:31;;;;;;;29.63;14.05;;;;;;;-0.11;90.08;101979.72;5031446;28;20116;-76
2022/03/04 04:15:57;;;;;;;26.95;14.07;;;;;;;-0.14;90.24;101978.78;5031064;28;20023;-75
2022/03/04 04:18:22;;;;;;;26.95;14.50;;;;;;;-0.13;90.55;101977.94;5031258;28;20528;-74
2022/03/04 04:20:47;;;;;;;27.33;13.75;;;;;;;-0.08;90.30;101987.56;5030941;28;20094;-75
2022/03/04 04:23:13;;;;;;;27.17;12.68;;;;;;;-0.03;89.70;101983.31;5038109;27;20037;-74
2022/03/04 04:25:38;;;;;;;28.25;13.40;;;;;;;0.05;89.38;101991.28;5031486;28;20034;-76
2022/03/04 04:28:04;;;;;;;26.63;13.18;;;;;;;0.09;88.98;101989.59;5031087;28;20029;-75
2022/03/04 04:30:30;;;;;;;25.50;13.23;;;;;;;0.09;88.67;101994.81;5031157;28;20435;-75
2022/03/04 04:32:55;;;;;;;28.75;14.32;;;;;;;0.09;88.42;101992.19;5037935;27;20056;-74
2022/03/04 04:35:21;;;;;;;27.23;14.07;;;;;;;0.05;88.52;101996.50;5095659;27;20039;-75
2022/03/04 04:37:46;;;;;;;29.50;14.05;;;;;;;0.04;88.63;101993.84;5036977;27;20033;-75
2022/03/04 04:40:11;;;;;;;28.80;13.73;;;;;;;0.06;88.56;101990.41;5030916;28;20041;-76
2022/03/04 04:42:37;;;;;;;25.65;13.27;;;;;;;0.01;88.91;101992.06;5037254;27;20033;-75
2022/03/04 04:45:03;;;;;;;27.80;13.63;;;;;;;-0.02;88.86;101985.09;5030787;28;20033;-74
2022/03/04 04:47:28;;;;;;;28.17;14.35;;;;;;;0.00;88.92;101992.94;5030361;28;20026;-74
2022/03/04 04:49:53;;;;;;;29.25;15.18;;;;;;;0.06;89.11;101986.94;5030656;28;20029;-74
2022/03/04 04:52:19;;;;;;;27.85;13.75;;;;;;;0.05;88.50;101993.91;5037269;27;20030;-74
2022/03/04 04:54:44;;;;;;;28.67;14.02;;;;;;;-0.02;88.75;101990.28;5031291;28;20022;-74
2022/03/04 04:57:09;;;;;;;25.30;14.02;;;;;;;-0.03;88.83;101987.66;5030697;28;20025;-75
2022/03/04 04:59:35;;;;;;;29.70;13.85;;;;;;;0.00;89.44;101992.94;5030352;28;20097;-75
2022/03/04 05:02:00;;;;;;;24.90;13.70;;;;;;;-0.10;89.21;101988.41;5030914;28;20026;-75
2022/03/04 05:04:26;;;;;;;30.35;14.48;;;;;;;-0.22;89.68;101997.75;5037375;27;20042;-75
2022/03/04 05:06:51;;;;;;;30.70;13.77;;;;;;;-0.29;90.28;101998.50;5030147;28;20022;-75
2022/03/04 05:09:17;;;;;;;28.08;14.23;;;;;;;-0.37;90.51;101990.53;5030028;28;20528;-75
2022/03/04 05:11:43;;;;;;;25.70;13.25;;;;;;;-0.45;91.13;101999.03;5030647;28;20150;-73
2022/03/04 05:14:08;;;;;;;30.33;14.73;;;;;;;-0.44;91.61;102003.41;5037331;27;20026;-75
2022/03/04 05:16:33;;;;;;;28.88;14.27;;;;;;;-0.50;91.13;102004.13;5030326;28;20487;-76
2022/03/04 05:18:59;;;;;;;29.23;14.70;;;;;;;-0.58;91.41;102003.13;5030159;28;20036;-76
2022/03/04 05:21:24;;;;;;;28.25;14.45;;;;;;;-0.64;91.53;102000.41;5030151;28;20116;-75
2022/03/04 05:23:59;;;;;;;26.83;14.18;;;;;;;-0.72;92.17;102002.84;5030185;28;20018;-74
2022/03/04 05:26:25;;;;;;;31.15;14.73;;;;;;;-0.76;92.83;102001.03;5127277;27;20393;-75
2022/03/04 05:28:50;;;;;;;29.27;14.77;;;;;;;-0.84;93.41;102009.53;5134176;27;20034;-74
2022/03/04 05:31:15;;;;;;;30.00;15.00;;;;;;;-0.81;93.49;102002.66;5058989;27;20033;-76
2022/03/04 05:33:41;;;;;;;30.67;14.45;;;;;;;-0.83;93.95;102008.69;5030284;28;20088;-76
2022/03/04 05:36:06;;;;;;;28.88;14.00;;;;;;;-0.84;93.59;102012.13;5081395;27;20030;-76
2022/03/04 05:38:32;;;;;;;32.30;15.10;;;;;;;-0.82;93.73;102012.16;5133906;27;20023;-75
2022/03/04 05:40:57;;;;;;;30.15;14.85;;;;;;;-0.80;93.58;102012.22;5099069;27;20059;-75
2022/03/04 05:43:22;;;;;;;30.98;14.80;;;;;;;-0.80;93.90;102015.69;5029978;28;20029;-75
2022/03/04 05:45:48;;;;;;;30.15;14.45;;;;;;;-0.86;93.47;102013.84;5052904;28;20022;-75
2022/03/04 05:48:13;;;;;;;26.58;14.38;;;;;;;-0.92;93.39;102010.22;5133629;27;20023;-75
2022/03/04 05:50:38;;;;;;;29.13;14.68;;;;;;;-0.99;93.29;102017.88;5133809;27;20053;-75
2022/03/04 05:53:04;;;;;;;27.92;14.27;;;;;;;-1.02;93.63;102014.34;5036263;27;20041;-75
2022/03/04 05:55:29;;;;;;;31.27;14.90;;;;;;;-1.06;93.74;102017.72;5033632;28;20017;-74
2022/03/04 05:57:54;;;;;;;31.02;15.00;;;;;;;-1.10;93.71;102016.78;5066851;27;20019;-74
2022/03/04 06:00:20;;;;;;;34.53;14.82;;;;;;;-1.12;93.93;102022.81;5059195;27;20082;-73
2022/03/04 06:02:45;;;;;;;27.75;14.40;;;;;;;-1.14;94.45;102030.53;5032949;28;20026;-76
2022/03/04 06:05:10;;;;;;;29.83;14.35;;;;;;;-1.18;94.96;102028.72;5033398;28;20021;-75
2022/03/04 06:07:36;;;;;;;29.92;14.98;;;;;;;-1.18;95.20;102036.53;5039869;27;20123;-75
2022/03/04 06:10:03;;;;;;;28.70;14.10;;;;;;;-1.22;95.36;102034.69;5032908;28;20480;-74
2022/03/04 06:12:28;;;;;;;29.67;15.57;;;;;;;-1.23;95.58;102028.63;5032879;27;20068;-75
2022/03/04 06:14:53;;;;;;;31.13;14.85;;;;;;;-1.26;95.48;102032.88;5032927;28;20029;-76
2022/03/04 06:17:19;;;;;;;31.85;15.55;;;;;;;-1.27;96.10;102031.13;5074907;27;20058;-76
2022/03/04 06:19:44;;;;;;;32.63;15.75;;;;;;;-1.24;96.02;102034.66;5137708;27;20046;-75
2022/03/04 06:22:10;;;;;;;28.05;14.98;;;;;;;-1.24;95.45;102042.47;5137312;27;20359;-75
2022/03/04 06:24:36;;;;;;;35.97;16.77;;;;;;;-1.23;95.55;102041.63;5057550;27;20033;-75
2022/03/04 06:27:02;;;;;;;30.88;15.25;;;;;;;-1.17;95.70;102040.88;5034999;27;20022;-74
2022/03/04 06:29:27;;;;;;;33.78;15.00;;;;;;;-1.17;95.34;102046.94;5133916;27;20088;-76
2022/03/04 06:31:53;;;;;;;33.33;14.93;;;;;;;-1.16;95.77;102046.09;5137164;27;20410;-74
2022/03/04 06:34:18;;;;;;;32.63;16.10;;;;;;;-1.12;95.84;102044.47;5098262;27;20112;-75
2022/03/04 06:36:43;;;;;;;30.48;15.70;;;;;;;-1.09;95.96;102049.72;5032790;28;20029;-76
2022/03/04 06:39:08;;;;;;;36.03;15.30;;;;;;;-1.05;95.58;102048.06;5039113;27;20707;-76
2022/03/04 06:41:34;;;;;;;38.10;15.70;;;;;;;-1.01;95.44;102055.09;5031039;28;20022;-76
2022/03/04 06:43:59;;;;;;;31.95;15.23;;;;;;;-1.02;95.28;102059.44;5032555;28;20033;-76
2022/03/04 06:46:25;;;;;;;32.45;15.90;;;;;;;-1.01;95.10;102063.78;5032612;28;20065;-74
2022/03/04 06:48:50;;;;;;;31.88;15.45;;;;;;;-1.00;95.31;102055.16;5039498;27;20029;-74
2022/03/04 06:51:15;;;;;;;33.72;16.08;;;;;;;-0.97;95.87;102061.25;5135217;27;20057;-76
2022/03/04 06:53:41;;;;;;;31.95;15.25;;;;;;;-0.95;95.78;102064.78;5032740;28;20062;-76
2022/03/04 06:56:06;;;;;;;31.75;15.68;;;;;;;-0.91;95.78;102062.28;5031495;28;20112;-75
2022/03/04 06:58:32;;;;;;;31.88;15.77;;;;;;;-0.84;96.04;102066.75;5033844;28;20022;-76
2022/03/04 07:00:57;;;;;;;31.33;15.85;;;;;;;-0.73;95.73;102066.09;5134936;27;20019;-75
2022/03/04 07:03:23;;;;;;;32.53;15.27;;;;;;;-0.67;95.77;102071.44;5136778;27;20172;-76
2022/03/04 07:05:49;;;;;;;29.50;15.80;;;;;;;-0.64;95.39;102070.63;5134765;27;20023;-75
2022/03/04 07:08:15;;;;;;;35.03;17.00;;;;;;;-0.59;94.83;102074.22;5123686;27;20023;-77
2022/03/04 07:10:45;;;;;;;34.75;16.75;;;;;;;-0.49;95.05;102083.97;5108750;27;20023;-76
2022/03/04 07:13:11;;;;;;;33.30;16.52;;;;;;;-0.41;94.83;102087.63;5136612;27;20030;-75
2022/03/04 07:15:37;;;;;;;32.33;15.93;;;;;;;-0.31;94.13;102082.59;5136577;27;20098;-75
2022/03/04 07:18:02;;;;;;;33.53;16.42;;;;;;;-0.15;94.16;102086.38;5136379;27;20019;-75
2022/03/04 07:20:28;;;;;;;32.05;15.80;;;;;;;-0.06;93.46;102086.56;5109195;27;20035;-75
2022/03/04 07:22:54;;;;;;;38.05;16.70;;;;;;;-0.02;92.86;102088.38;5135314;27;20027;-76
2022/03/04 07:25:19;;;;;;;32.75;15.82;;;;;;;0.06;92.73;102080.72;5136177;27;20030;-76
2022/03/04 07:27:45;;;;;;;31.35;14.68;;;;;;;0.14;92.67;102086.94;5135893;27;20019;-77
2022/03/04 07:30:13;;;;;;;35.50;16.15;;;;;;;0.23;92.35;102084.50;5104834;27;20037;-77
2022/03/04 07:32:39;;;;;;;31.83;15.15;;;;;;;0.38;91.45;102090.84;5136051;27;20031;-75
2022/03/04 07:35:07;;;;;;;30.92;15.90;;;;;;;0.42;90.68;102095.25;5136186;27;20486;-77
2022/03/04 07:37:34;;;;;;;30.92;15.18;;;;;;;0.48;90.90;102087.53;5136110;27;20023;-75
2022/03/04 07:39:59;;;;;;;27.63;15.05;;;;;;;0.57;90.80;102090.28;5133902;27;20047;-75
2022/03/04 07:42:24;;;;;;;34.28;16.33;;;;;;;0.71;90.08;102081.84;5068780;27;20090;-75
2022/03/04 07:44:50;;;;;;;30.25;15.10;;;;;;;0.82;89.44;102082.88;5017242;28;20029;-76
2022/03/04 07:47:15;;;;;;;29.17;14.95;;;;;;;0.93;88.71;102081.31;5027369;28;20026;-75
2022/03/04 07:49:43;;;;;;;28.42;16.35;;;;;;;0.99;88.60;102088.34;5031656;28;20132;-74
2022/03/04 07:52:09;;;;;;;30.63;15.30;;;;;;;1.15;88.16;102084.22;5037474;27;20033;-74
2022/03/04 07:54:36;;;;;;;31.27;14.98;;;;;;;1.27;87.24;102084.41;5028961;28;20033;-75
2022/03/04 07:57:01;;;;;;;27.85;15.25;;;;;;;1.47;86.20;102078.56;5030944;27;20120;-77
2022/03/04 07:59:26;;;;;;;31.88;16.50;;;;;;;1.61;85.11;102086.56;5030086;28;20500;-74
2022/03/04 08:01:51;;;;;;;30.40;15.48;;;;;;;1.74;84.94;102084.97;5031474;28;20062;-74
2022/03/04 08:04:17;;;;;;;31.88;14.57;;;;;;;1.78;84.43;102094.63;5031204;28;20026;-76
2022/03/04 08:06:42;;;;;;;28.92;14.27;;;;;;;1.87;83.98;102101.69;5030650;28;20407;-73
2022/03/04 08:09:08;;;;;;;30.90;14.63;;;;;;;1.94;83.31;102098.28;5031102;28;20046;-74
2022/03/04 08:11:34;;;;;;;27.90;14.50;;;;;;;2.04;83.49;102104.50;5030830;28;20037;-74
2022/03/04 08:13:59;;;;;;;27.58;14.60;;;;;;;2.14;82.52;102114.19;5036056;27;20030;-73
2022/03/04 08:16:25;;;;;;;27.52;14.90;;;;;;;2.23;82.41;102105.56;5031053;28;20079;-74
2022/03/04 08:18:52;;;;;;;27.85;14.40;;;;;;;2.32;82.13;102115.25;5029764;28;20030;-76
2022/03/04 08:21:17;;;;;;;27.67;14.40;;;;;;;2.39;80.84;102117.94;5030492;28;20090;-76
2022/03/04 08:23:42;;;;;;;28.10;14.00;;;;;;;2.48;80.34;102108.41;5037512;27;20442;-74
2022/03/04 08:26:09;;;;;;;29.27;14.35;;;;;;;2.58;79.93;102115.47;5031289;28;20033;-74
2022/03/04 08:28:34;;;;;;;26.17;13.48;;;;;;;2.68;79.79;102113.81;5052924;27;20021;-75
2022/03/04 08:31:00;;;;;;;26.90;14.20;;;;;;;2.69;78.67;102105.97;5030698;28;20040;-74
2022/03/04 08:33:27;;;;;;;29.42;14.23;;;;;;;2.76;78.91;102112.13;5032734;27;20070;-75
2022/03/04 08:35:53;;;;;;;26.83;14.82;;;;;;;2.82;78.19;102120.03;5030515;28;20090;-74
2022/03/04 08:38:18;;;;;;;28.73;14.88;;;;;;;2.89;77.92;102121.84;5031030;28;20457;-76
2022/03/04 08:40:44;;;;;;;26.92;14.23;;;;;;;2.97;78.10;102124.53;5030390;28;20056;-73
2022/03/04 08:43:09;;;;;;;26.20;14.77;;;;;;;3.08;78.17;102111.50;5093713;27;20683;-74
2022/03/04 08:45:34;;;;;;;25.02;14.23;;;;;;;3.18;78.17;102117.69;5029745;28;20083;-75
2022/03/04 08:48:06;;;;;;;32.45;14.38;;;;;;;3.27;78.23;102115.13;5073313;27;20011;-77
2022/03/04 08:50:31;;;;;;;27.08;14.73;;;;;;;3.40;77.31;102111.72;5060598;27;20056;-75
2022/03/04 08:52:57;;;;;;;29.95;14.82;;;;;;;3.46;76.20;102110.84;5030436;28;20030;-75
2022/03/04 08:55:22;;;;;;;26.58;14.27;;;;;;;3.53;75.77;102110.03;5058506;27;20023;-75
2022/03/04 08:57:48;;;;;;;25.55;13.75;;;;;;;3.64;75.36;102110.06;5057756;27;20041;-74
2022/03/04 09:00:16;;;;;;;27.00;14.02;;;;;;;3.83;75.17;102104.91;5029577;28;20029;-77
2022/03/04 09:02:42;;;;;;;28.00;14.18;;;;;;;4.48;74.37;102105.06;5030505;28;20029;-74
2022/03/04 09:05:07;;;;;;;24.95;13.80;;;;;;;5.74;70.33;102101.34;5030295;28;20465;-75
2022/03/04 09:07:33;;;;;;;24.05;14.05;;;;;;;7.43;64.73;102108.84;5037645;27;20040;-74
2022/03/04 09:09:58;;;;;;;24.08;14.55;;;;;;;8.69;58.84;102108.88;5025904;28;20036;-75
2022/03/04 09:12:24;;;;;;;24.90;14.55;;;;;;;9.99;53.02;102102.91;5009897;28;20026;-75
2022/03/04 09:14:49;;;;;;;23.75;14.30;;;;;;;10.83;47.85;102112.41;5022161;27;20028;-74
2022/03/04 09:17:14;;;;;;;24.92;15.00;;;;;;;11.37;46.18;102104.78;5059849;27;20048;-76
2022/03/04 09:19:40;;;;;;;26.73;15.25;;;;;;;12.04;43.27;102103.78;5064877;27;20020;-74
2022/03/04 09:22:05;;;;;;;24.10;14.60;;;;;;;12.60;41.93;102106.41;5073417;27;20022;-73
2022/03/04 09:24:30;;;;;;;27.02;14.55;;;;;;;13.06;40.85;102103.97;5128654;27;20061;-75
2022/03/04 09:26:55;;;;;;;23.50;14.93;;;;;;;13.52;39.63;102109.47;5076083;27;20033;-77
2022/03/04 09:29:21;;;;;;;23.05;15.30;;;;;;;13.58;37.72;102111.91;5094243;27;20025;-77
2022/03/04 09:31:46;;;;;;;24.55;15.55;;;;;;;13.62;39.49;102110.00;5075119;27;20019;-77
2022/03/04 09:34:12;;;;;;;21.38;15.07;;;;;;;13.80;38.98;102104.88;5075603;27;20484;-75
2022/03/04 09:36:37;;;;;;;22.38;15.35;;;;;;;13.70;39.33;102120.38;5009795;28;20049;-76
2022/03/04 09:39:03;;;;;;;24.20;15.35;;;;;;;14.07;38.07;102117.16;5054296;28;20110;-75
2022/03/04 09:41:30;;;;;;;23.58;15.18;;;;;;;13.85;37.28;102117.13;5090177;27;20137;-76
2022/03/04 09:43:56;;;;;;;21.70;14.55;;;;;;;14.19;36.69;102117.59;5081146;28;20027;-76
2022/03/04 09:46:23;;;;;;;22.38;14.73;;;;;;;14.24;36.57;102127.13;5080705;27;20048;-76
2022/03/04 09:48:49;;;;;;;24.13;15.63;;;;;;;14.48;36.08;102132.41;5095868;28;20110;-76
2022/03/04 09:51:15;;;;;;;22.77;14.65;;;;;;;14.61;35.75;102122.13;5071046;27;20033;-76
2022/03/04 09:53:40;;;;;;;25.20;15.38;;;;;;;14.51;35.12;102126.09;5099797;28;20381;-74
2022/03/04 09:56:06;;;;;;;26.40;15.48;;;;;;;14.82;35.57;102138.19;5088298;27;20350;-76
2022/03/04 09:58:31;;;;;;;25.08;15.93;;;;;;;14.97;35.59;102142.84;5030339;28;20086;-76
2022/03/04 10:00:56;;;;;;;24.70;15.18;;;;;;;15.02;35.47;102119.53;5087901;28;20507;-76
2022/03/04 10:03:31;;;;;;;21.60;14.93;;;;;;;15.40;33.37;102118.78;5097927;28;20034;-77
2022/03/04 10:05:59;;;;;;;24.00;15.55;;;;;;;15.07;34.99;102127.34;5032703;28;20030;-76
2022/03/04 10:08:25;;;;;;;24.70;15.07;;;;;;;15.22;34.22;102129.34;5028674;28;20136;-76
2022/03/04 10:10:55;;;;;;;22.77;14.90;;;;;;;15.80;33.08;102113.44;5029139;28;20536;-76
2022/03/04 10:13:44;;;;;;;21.58;14.95;;;;;;;15.98;32.10;102101.91;5028876;28;20025;-76
2022/03/04 10:16:12;;;;;;;21.00;14.75;;;;;;;15.68;32.92;102101.53;5063577;28;20522;-74
2022/03/04 10:18:37;;;;;;;23.50;15.38;;;;;;;15.71;34.05;102107.56;5057702;27;20026;-77
2022/03/04 10:21:03;;;;;;;22.70;15.43;;;;;;;15.86;34.06;102102.50;5028105;28;20030;-76
2022/03/04 10:23:28;;;;;;;22.58;14.50;;;;;;;16.34;34.00;102106.44;5024276;28;20370;-79
2022/03/04 10:25:56;;;;;;;23.52;15.38;;;;;;;16.58;31.80;102107.97;5027319;28;20477;-77
2022/03/04 10:28:23;;;;;;;22.75;15.13;;;;;;;16.21;33.15;102106.16;5008697;28;20202;-76
2022/03/04 10:30:50;;;;;;;26.45;15.93;;;;;;;16.53;32.33;102097.47;5024006;28;20026;-76
2022/03/04 10:33:21;;;;;;;24.95;15.43;;;;;;;16.70;31.21;102101.97;5015095;28;20147;-76
2022/03/04 10:36:03;;;;;;;22.73;15.10;;;;;;;16.99;31.62;102102.31;5016865;28;20026;-75
2022/03/04 10:38:29;;;;;;;23.30;15.13;;;;;;;16.72;31.72;102110.78;5011674;28;20029;-76
2022/03/04 10:40:54;;;;;;;21.70;14.88;;;;;;;17.00;32.09;102107.59;5009391;28;20049;-76
2022/03/04 10:43:25;;;;;;;21.52;15.57;;;;;;;17.04;30.70;102105.63;5017415;28;20045;-75
2022/03/04 10:46:01;;;;;;;23.92;16.30;;;;;;;16.93;31.29;102103.53;5020054;28;20066;-75
2022/03/04 10:48:26;;;;;;;22.17;15.43;;;;;;;17.06;31.06;102101.06;5024304;28;20033;-75
2022/03/04 10:50:55;;;;;;;23.35;15.02;;;;;;;17.40;30.66;102101.09;5031123;28;20040;-75
2022/03/04 10:53:22;;;;;;;21.95;15.15;;;;;;;17.51;30.62;102110.28;5029310;28;20112;-74
2022/03/04 10:55:50;;;;;;;21.65;15.45;;;;;;;17.12;30.81;102106.13;5028674;28;20168;-76
2022/03/04 10:58:23;;;;;;;23.40;15.57;;;;;;;17.35;31.32;102102.22;5025048;28;20033;-76
2022/03/04 11:00:50;;;;;;;21.60;15.05;;;;;;;17.41;31.14;102103.69;5030138;28;20021;-74
2022/03/04 11:03:19;;;;;;;20.77;15.77;;;;;;;17.31;31.32;102102.44;5054292;27;20031;-76
2022/03/04 11:05:45;;;;;;;21.02;15.13;;;;;;;17.25;30.78;102105.44;5052458;27;20037;-76
2022/03/04 11:08:11;;;;;;;23.63;15.95;;;;;;;16.90;32.52;102100.09;5020713;28;20034;-75